sensor_id;sensor_type;location;lat;lon;timestamp;pressure;altitude;pressure_sealevel;temperature;humidity
20156;BME280;10238;49.556;10.956;2022-08-19T00:00:25;97643.38;;;20.79;100.00
20156;BME280;10238;49.556;10.956;2022-08-19T00:03:16;97640.56;;;20.74;100.00
20156;BME280;10238;49.556;10.956;2022-08-19T00:06:07;97644.78;;;20.70;100.00
20156;BME280;10238;49.556;10.956;2022-08-19T00:08:58;97639.84;;;20.67;100.00
20156;BME280;10238;49.556;10.956;2022-08-19T00:11:49;97634.94;;;20.64;100.00
20156;BME280;10238;49.556;10.956;2022-08-19T00:14:39;97627.88;;;20.63;100.00
20156;BME280;10238;49.556;10.956;2022-08-19T00:17:30;97626.69;;;20.59;100.00
20156;BME280;10238;49.556;10.956;2022-08-19T00:20:21;97616.34;;;20.56;100.00
20156;BME280;10238;49.556;10.956;2022-08-19T00:23:10;97622.81;;;20.55;100.00
20156;BME280;10238;49.556;10.956;2022-08-19T00:26:00;97629.75;;;20.51;100.00
20156;BME280;10238;49.556;10.956;2022-08-19T00:28:49;97624.81;;;20.48;100.00
20156;BME280;10238;49.556;10.956;2022-08-19T00:31:39;97632.94;;;20.48;100.00
20156;BME280;10238;49.556;10.956;2022-08-19T00:34:31;97640.66;;;20.44;100.00
20156;BME280;10238;49.556;10.956;2022-08-19T00:37:21;97630.34;;;20.41;100.00
20156;BME280;10238;49.556;10.956;2022-08-19T00:40:12;97626.69;;;20.36;100.00
20156;BME280;10238;49.556;10.956;2022-08-19T00:43:09;97640.78;;;20.38;100.00
20156;BME280;10238;49.556;10.956;2022-08-19T00:45:59;97639.63;;;20.34;100.00
20156;BME280;10238;49.556;10.956;2022-08-19T00:48:49;97653.34;;;20.32;100.00
20156;BME280;10238;49.556;10.956;2022-08-19T00:51:41;97655.47;;;20.30;100.00
20156;BME280;10238;49.556;10.956;2022-08-19T00:54:31;97651.34;;;20.28;100.00
20156;BME280;10238;49.556;10.956;2022-08-19T00:57:27;97660.94;;;20.24;100.00
20156;BME280;10238;49.556;10.956;2022-08-19T01:00:19;97656.84;;;20.21;100.00
20156;BME280;10238;49.556;10.956;2022-08-19T01:03:13;97656.63;;;20.23;100.00
20156;BME280;10238;49.556;10.956;2022-08-19T01:06:07;97651.81;;;20.25;100.00
20156;BME280;10238;49.556;10.956;2022-08-19T01:08:58;97654.75;;;20.23;100.00
20156;BME280;10238;49.556;10.956;2022-08-19T01:11:48;97664.72;;;20.23;100.00
20156;BME280;10238;49.556;10.956;2022-08-19T01:14:39;97668.72;;;20.20;100.00
20156;BME280;10238;49.556;10.956;2022-08-19T01:17:29;97670.56;;;20.20;100.00
20156;BME280;10238;49.556;10.956;2022-08-19T01:20:23;97678.31;;;20.16;100.00
20156;BME280;10238;49.556;10.956;2022-08-19T01:23:15;97674.19;;;20.14;100.00
20156;BME280;10238;49.556;10.956;2022-08-19T01:26:04;97683.47;;;20.18;100.00
20156;BME280;10238;49.556;10.956;2022-08-19T01:28:58;97686.66;;;20.15;100.00
20156;BME280;10238;49.556;10.956;2022-08-19T01:31:49;97692.06;;;20.15;100.00
20156;BME280;10238;49.556;10.956;2022-08-19T01:34:40;97683.56;;;20.11;100.00
20156;BME280;10238;49.556;10.956;2022-08-19T01:37:45;97671.25;;;20.15;100.00
20156;BME280;10238;49.556;10.956;2022-08-19T01:40:39;97673.50;;;20.18;100.00
20156;BME280;10238;49.556;10.956;2022-08-19T01:43:30;97676.44;;;20.17;100.00
20156;BME280;10238;49.556;10.956;2022-08-19T01:46:20;97684.28;;;20.18;100.00
20156;BME280;10238;49.556;10.956;2022-08-19T01:49:11;97677.31;;;20.11;100.00
20156;BME280;10238;49.556;10.956;2022-08-19T01:52:04;97687.59;;;20.20;100.00
20156;BME280;10238;49.556;10.956;2022-08-19T01:54:56;97686.66;;;20.15;100.00
20156;BME280;10238;49.556;10.956;2022-08-19T01:57:51;97698.47;;;20.14;100.00
20156;BME280;10238;49.556;10.956;2022-08-19T02:00:43;97699.09;;;20.16;100.00
20156;BME280;10238;49.556;10.956;2022-08-19T02:03:33;97694.75;;;20.15;100.00
20156;BME280;10238;49.556;10.956;2022-08-19T02:06:24;97700.72;;;20.17;100.00
20156;BME280;10238;49.556;10.956;2022-08-19T02:09:14;97694.25;;;20.18;100.00
20156;BME280;10238;49.556;10.956;2022-08-19T02:12:05;97678.06;;;20.18;100.00
20156;BME280;10238;49.556;10.956;2022-08-19T02:14:58;97676.44;;;20.17;100.00
20156;BME280;10238;49.556;10.956;2022-08-19T02:17:49;97673.72;;;20.17;100.00
20156;BME280;10238;49.556;10.956;2022-08-19T02:20:40;97689.94;;;20.17;100.00
20156;BME280;10238;49.556;10.956;2022-08-19T02:23:31;97705.06;;;20.18;100.00
20156;BME280;10238;49.556;10.956;2022-08-19T02:26:21;97710.13;;;20.14;100.00
20156;BME280;10238;49.556;10.956;2022-08-19T02:29:11;97728.16;;;20.14;100.00
20156;BME280;10238;49.556;10.956;2022-08-19T02:32:02;97729.06;;;20.08;100.00
20156;BME280;10238;49.556;10.956;2022-08-19T02:34:52;97729.66;;;20.10;100.00
20156;BME280;10238;49.556;10.956;2022-08-19T02:37:42;97734.22;;;20.09;100.00
20156;BME280;10238;49.556;10.956;2022-08-19T02:40:52;97726.34;;;20.08;100.00
20156;BME280;10238;49.556;10.956;2022-08-19T02:43:45;97725.09;;;20.10;100.00
20156;BME280;10238;49.556;10.956;2022-08-19T02:46:54;97735.50;;;20.07;100.00
20156;BME280;10238;49.556;10.956;2022-08-19T02:49:45;97737.16;;;20.08;100.00
20156;BME280;10238;49.556;10.956;2022-08-19T02:52:37;97745.47;;;20.06;100.00
20156;BME280;10238;49.556;10.956;2022-08-19T02:55:26;97750.41;;;20.09;100.00
20156;BME280;10238;49.556;10.956;2022-08-19T02:58:16;97748.41;;;20.05;100.00
20156;BME280;10238;49.556;10.956;2022-08-19T03:01:07;97746.53;;;20.05;100.00
20156;BME280;10238;49.556;10.956;2022-08-19T03:03:58;97747.22;;;20.01;100.00
20156;BME280;10238;49.556;10.956;2022-08-19T03:06:52;97748.41;;;20.05;100.00
20156;BME280;10238;49.556;10.956;2022-08-19T03:09:47;97756.50;;;20.05;100.00
20156;BME280;10238;49.556;10.956;2022-08-19T03:12:38;97746.75;;;20.04;100.00
20156;BME280;10238;49.556;10.956;2022-08-19T03:15:27;97738.06;;;20.02;100.00
20156;BME280;10238;49.556;10.956;2022-08-19T03:18:18;97727.28;;;20.02;100.00
20156;BME280;10238;49.556;10.956;2022-08-19T03:21:15;97727.28;;;20.02;100.00
20156;BME280;10238;49.556;10.956;2022-08-19T03:24:08;97720.84;;;20.03;100.00
20156;BME280;10238;49.556;10.956;2022-08-19T03:26:58;97720.00;;;20.02;100.00
20156;BME280;10238;49.556;10.956;2022-08-19T03:29:47;97717.31;;;20.02;100.00
20156;BME280;10238;49.556;10.956;2022-08-19T03:32:38;97717.53;;;20.01;100.00
20156;BME280;10238;49.556;10.956;2022-08-19T03:35:32;97708.59;;;20.00;100.00
20156;BME280;10238;49.556;10.956;2022-08-19T03:38:24;97698.66;;;20.01;100.00
20156;BME280;10238;49.556;10.956;2022-08-19T03:41:18;97701.34;;;20.01;100.00
20156;BME280;10238;49.556;10.956;2022-08-19T03:44:08;97690.56;;;20.01;100.00
20156;BME280;10238;49.556;10.956;2022-08-19T03:47:04;97688.91;;;20.00;100.00
20156;BME280;10238;49.556;10.956;2022-08-19T03:49:54;97684.59;;;19.99;100.00
20156;BME280;10238;49.556;10.956;2022-08-19T03:52:48;97689.59;;;19.95;100.00
20156;BME280;10238;49.556;10.956;2022-08-19T03:55:40;97699.56;;;19.95;100.00
20156;BME280;10238;49.556;10.956;2022-08-19T03:58:31;97698.38;;;19.91;100.00
20156;BME280;10238;49.556;10.956;2022-08-19T04:01:24;97690.28;;;19.91;100.00
20156;BME280;10238;49.556;10.956;2022-08-19T04:04:23;97685.13;;;19.89;100.00
20156;BME280;10238;49.556;10.956;2022-08-19T04:07:16;97680.19;;;19.86;100.00
20156;BME280;10238;49.556;10.956;2022-08-19T04:10:09;97681.81;;;19.87;100.00
20156;BME280;10238;49.556;10.956;2022-08-19T04:13:01;97679.34;;;19.86;100.00
20156;BME280;10238;49.556;10.956;2022-08-19T04:15:53;97674.78;;;19.86;100.00
20156;BME280;10238;49.556;10.956;2022-08-19T04:18:43;97676.66;;;19.86;100.00
20156;BME280;10238;49.556;10.956;2022-08-19T04:21:33;97676.44;;;19.87;100.00
20156;BME280;10238;49.556;10.956;2022-08-19T04:24:27;97688.06;;;19.88;100.00
20156;BME280;10238;49.556;10.956;2022-08-19T04:29:19;97692.28;;;19.84;100.00
20156;BME280;10238;49.556;10.956;2022-08-19T04:32:08;97713.41;;;19.87;100.00
20156;BME280;10238;49.556;10.956;2022-08-19T04:35:03;97716.78;;;19.82;100.00
20156;BME280;10238;49.556;10.956;2022-08-19T04:38:30;97713.47;;;19.80;100.00
20156;BME280;10238;49.556;10.956;2022-08-19T04:41:20;97709.75;;;19.81;100.00
20156;BME280;10238;49.556;10.956;2022-08-19T04:44:27;97730.94;;;19.78;100.00
20156;BME280;10238;49.556;10.956;2022-08-19T04:47:21;97737.97;;;19.79;100.00
20156;BME280;10238;49.556;10.956;2022-08-19T04:50:33;97748.41;;;19.75;100.00
20156;BME280;10238;49.556;10.956;2022-08-19T04:53:29;97756.97;;;19.72;100.00
20156;BME280;10238;49.556;10.956;2022-08-19T04:56:24;97762.13;;;19.74;100.00
20156;BME280;10238;49.556;10.956;2022-08-19T04:59:15;97767.75;;;19.72;100.00
20156;BME280;10238;49.556;10.956;2022-08-19T05:02:08;97773.50;;;19.76;100.00
20156;BME280;10238;49.556;10.956;2022-08-19T05:04:59;97775.44;;;19.69;100.00
20156;BME280;10238;49.556;10.956;2022-08-19T05:07:49;97771.69;;;19.70;100.00
20156;BME280;10238;49.556;10.956;2022-08-19T05:10:40;97771.25;;;19.73;100.00
20156;BME280;10238;49.556;10.956;2022-08-19T05:13:32;97770.66;;;19.71;100.00
20156;BME280;10238;49.556;10.956;2022-08-19T05:16:24;97777.25;;;19.75;100.00
20156;BME280;10238;49.556;10.956;2022-08-19T05:19:14;97781.13;;;19.79;100.00
20156;BME280;10238;49.556;10.956;2022-08-19T05:22:22;97790.28;;;19.78;100.00
20156;BME280;10238;49.556;10.956;2022-08-19T05:25:23;97796.28;;;19.80;100.00
20156;BME280;10238;49.556;10.956;2022-08-19T05:28:13;97797.25;;;19.85;100.00
20156;BME280;10238;49.556;10.956;2022-08-19T05:31:02;97799.94;;;19.85;100.00
20156;BME280;10238;49.556;10.956;2022-08-19T05:33:52;97814.84;;;19.88;100.00
20156;BME280;10238;49.556;10.956;2022-08-19T05:36:44;97822.25;;;19.92;100.00
20156;BME280;10238;49.556;10.956;2022-08-19T05:39:37;97818.72;;;19.92;100.00
20156;BME280;10238;49.556;10.956;2022-08-19T05:42:28;97809.91;;;19.85;100.00
20156;BME280;10238;49.556;10.956;2022-08-19T05:45:18;97808.78;;;19.92;100.00
20156;BME280;10238;49.556;10.956;2022-08-19T05:48:09;97799.41;;;19.95;100.00
20156;BME280;10238;49.556;10.956;2022-08-19T05:51:04;97794.16;;;20.00;100.00
20156;BME280;10238;49.556;10.956;2022-08-19T05:53:54;97796.97;;;20.05;100.00
20156;BME280;10238;49.556;10.956;2022-08-19T05:56:46;97797.75;;;20.12;100.00
20156;BME280;10238;49.556;10.956;2022-08-19T05:59:36;97805.41;;;20.15;100.00
20156;BME280;10238;49.556;10.956;2022-08-19T06:02:26;97803.44;;;20.22;100.00
20156;BME280;10238;49.556;10.956;2022-08-19T06:05:16;97812.09;;;20.24;100.00
20156;BME280;10238;49.556;10.956;2022-08-19T06:08:05;97796.22;;;20.34;100.00
20156;BME280;10238;49.556;10.956;2022-08-19T06:10:55;97788.59;;;20.42;100.00
20156;BME280;10238;49.556;10.956;2022-08-19T06:13:48;97788.94;;;20.46;100.00
20156;BME280;10238;49.556;10.956;2022-08-19T06:16:46;97787.09;;;20.58;100.00
20156;BME280;10238;49.556;10.956;2022-08-19T06:19:36;97789.94;;;20.63;100.00
20156;BME280;10238;49.556;10.956;2022-08-19T06:22:28;97793.47;;;20.75;100.00
20156;BME280;10238;49.556;10.956;2022-08-19T06:25:18;97796.06;;;20.81;100.00
20156;BME280;10238;49.556;10.956;2022-08-19T06:28:07;97791.16;;;20.90;100.00
20156;BME280;10238;49.556;10.956;2022-08-19T06:31:07;97795.66;;;20.96;100.00
20156;BME280;10238;49.556;10.956;2022-08-19T06:33:57;97784.63;;;20.97;100.00
20156;BME280;10238;49.556;10.956;2022-08-19T06:36:49;97787.44;;;21.02;100.00
20156;BME280;10238;49.556;10.956;2022-08-19T06:39:40;97779.09;;;21.04;100.00
20156;BME280;10238;49.556;10.956;2022-08-19T06:42:30;97774.41;;;21.11;100.00
20156;BME280;10238;49.556;10.956;2022-08-19T06:45:22;97783.91;;;21.25;100.00
20156;BME280;10238;49.556;10.956;2022-08-19T06:48:24;97782.72;;;21.33;100.00
20156;BME280;10238;49.556;10.956;2022-08-19T06:51:17;97786.34;;;21.38;100.00
20156;BME280;10238;49.556;10.956;2022-08-19T06:54:09;97788.13;;;21.44;100.00
20156;BME280;10238;49.556;10.956;2022-08-19T06:57:07;97790.94;;;21.49;100.00
20156;BME280;10238;49.556;10.956;2022-08-19T07:00:03;97780.81;;;21.56;100.00
20156;BME280;10238;49.556;10.956;2022-08-19T07:02:56;97787.38;;;21.60;100.00
20156;BME280;10238;49.556;10.956;2022-08-19T07:05:52;97796.78;;;21.69;100.00
20156;BME280;10238;49.556;10.956;2022-08-19T07:08:42;97814.41;;;21.72;100.00
20156;BME280;10238;49.556;10.956;2022-08-19T07:11:32;97814.22;;;21.73;100.00
20156;BME280;10238;49.556;10.956;2022-08-19T07:14:25;97817.84;;;21.79;100.00
20156;BME280;10238;49.556;10.956;2022-08-19T07:17:14;97826.91;;;21.84;100.00
20156;BME280;10238;49.556;10.956;2022-08-19T07:20:09;97823.81;;;21.92;100.00
20156;BME280;10238;49.556;10.956;2022-08-19T07:23:02;97814.38;;;22.06;100.00
20156;BME280;10238;49.556;10.956;2022-08-19T07:25:54;97809.25;;;22.21;100.00
20156;BME280;10238;49.556;10.956;2022-08-19T07:28:46;97815.44;;;22.33;100.00
20156;BME280;10238;49.556;10.956;2022-08-19T07:31:39;97821.03;;;22.43;100.00
20156;BME280;10238;49.556;10.956;2022-08-19T07:34:32;97818.00;;;22.51;100.00
20156;BME280;10238;49.556;10.956;2022-08-19T07:37:26;97824.06;;;22.58;100.00
20156;BME280;10238;49.556;10.956;2022-08-19T07:40:22;97830.16;;;22.65;100.00
20156;BME280;10238;49.556;10.956;2022-08-19T07:43:14;97826.38;;;22.66;100.00
20156;BME280;10238;49.556;10.956;2022-08-19T07:46:06;97825.88;;;22.69;100.00
20156;BME280;10238;49.556;10.956;2022-08-19T07:49:01;97823.28;;;22.74;100.00
20156;BME280;10238;49.556;10.956;2022-08-19T07:52:08;97827.38;;;22.77;100.00
20156;BME280;10238;49.556;10.956;2022-08-19T07:55:07;97832.06;;;22.81;100.00
20156;BME280;10238;49.556;10.956;2022-08-19T07:58:21;97830.50;;;22.85;100.00
20156;BME280;10238;49.556;10.956;2022-08-19T08:01:14;97834.63;;;22.88;100.00
20156;BME280;10238;49.556;10.956;2022-08-19T08:04:04;97837.09;;;22.89;100.00
20156;BME280;10238;49.556;10.956;2022-08-19T08:07:11;97835.44;;;22.88;100.00
20156;BME280;10238;49.556;10.956;2022-08-19T08:10:18;97833.31;;;22.90;100.00
20156;BME280;10238;49.556;10.956;2022-08-19T08:13:11;97832.25;;;22.91;100.00
20156;BME280;10238;49.556;10.956;2022-08-19T08:16:02;97823.63;;;22.94;100.00
20156;BME280;10238;49.556;10.956;2022-08-19T08:18:57;97829.03;;;22.94;100.00
20156;BME280;10238;49.556;10.956;2022-08-19T08:21:51;97816.56;;;22.93;100.00
20156;BME280;10238;49.556;10.956;2022-08-19T08:24:41;97819.28;;;22.93;100.00
20156;BME280;10238;49.556;10.956;2022-08-19T08:27:31;97825.28;;;22.95;100.00
20156;BME280;10238;49.556;10.956;2022-08-19T08:30:23;97826.91;;;22.96;100.00
20156;BME280;10238;49.556;10.956;2022-08-19T08:33:22;97824.78;;;22.98;100.00
20156;BME280;10238;49.556;10.956;2022-08-19T08:36:21;97824.03;;;23.03;100.00
20156;BME280;10238;49.556;10.956;2022-08-19T08:39:14;97810.31;;;23.09;100.00
20156;BME280;10238;49.556;10.956;2022-08-19T08:42:12;97799.06;;;23.17;100.00
20156;BME280;10238;49.556;10.956;2022-08-19T08:45:12;97792.75;;;23.28;100.00
20156;BME280;10238;49.556;10.956;2022-08-19T08:48:15;97784.25;;;23.42;100.00
20156;BME280;10238;49.556;10.956;2022-08-19T08:51:18;97787.94;;;23.52;100.00
20156;BME280;10238;49.556;10.956;2022-08-19T08:54:14;97792.91;;;23.60;100.00
20156;BME280;10238;49.556;10.956;2022-08-19T08:57:14;97806.06;;;23.68;100.00
20156;BME280;10238;49.556;10.956;2022-08-19T09:00:09;97816.47;;;23.76;100.00
20156;BME280;10238;49.556;10.956;2022-08-19T09:03:07;97821.16;;;23.81;100.00
20156;BME280;10238;49.556;10.956;2022-08-19T09:06:03;97823.13;;;23.85;100.00
20156;BME280;10238;49.556;10.956;2022-08-19T09:09:09;97820.78;;;23.94;100.00
20156;BME280;10238;49.556;10.956;2022-08-19T09:12:11;97823.03;;;23.97;100.00
20156;BME280;10238;49.556;10.956;2022-08-19T09:15:15;97817.84;;;23.95;100.00
20156;BME280;10238;49.556;10.956;2022-08-19T09:18:20;97820.56;;;23.95;100.00
20156;BME280;10238;49.556;10.956;2022-08-19T09:21:10;97817.50;;;23.92;100.00
20156;BME280;10238;49.556;10.956;2022-08-19T09:24:02;97815.31;;;23.89;100.00
20156;BME280;10238;49.556;10.956;2022-08-19T09:26:51;97817.44;;;23.87;100.00
20156;BME280;10238;49.556;10.956;2022-08-19T09:29:40;97822.88;;;23.87;100.00
20156;BME280;10238;49.556;10.956;2022-08-19T09:32:29;97821.47;;;23.84;100.00
20156;BME280;10238;49.556;10.956;2022-08-19T09:35:21;97809.25;;;23.82;100.00
20156;BME280;10238;49.556;10.956;2022-08-19T09:38:11;97822.72;;;23.77;100.00
20156;BME280;10238;49.556;10.956;2022-08-19T09:41:07;97818.88;;;23.73;100.00
20156;BME280;10238;49.556;10.956;2022-08-19T09:43:58;97830.78;;;23.72;100.00
20156;BME280;10238;49.556;10.956;2022-08-19T09:46:47;97835.94;;;23.68;100.00
20156;BME280;10238;49.556;10.956;2022-08-19T09:49:38;97830.16;;;23.65;100.00
20156;BME280;10238;49.556;10.956;2022-08-19T09:52:27;97826.81;;;23.58;100.00
20156;BME280;10238;49.556;10.956;2022-08-19T09:55:19;97819.16;;;23.55;100.00
20156;BME280;10238;49.556;10.956;2022-08-19T09:58:15;97817.19;;;23.50;100.00
20156;BME280;10238;49.556;10.956;2022-08-19T10:01:06;97810.13;;;23.49;100.00
20156;BME280;10238;49.556;10.956;2022-08-19T10:03:59;97808.75;;;23.47;100.00
20156;BME280;10238;49.556;10.956;2022-08-19T10:06:56;97816.91;;;23.47;100.00
20156;BME280;10238;49.556;10.956;2022-08-19T10:09:46;97814.09;;;23.42;100.00
20156;BME280;10238;49.556;10.956;2022-08-19T10:12:36;97825.44;;;23.39;100.00
20156;BME280;10238;49.556;10.956;2022-08-19T10:15:27;97825.94;;;23.36;100.00
20156;BME280;10238;49.556;10.956;2022-08-19T10:18:19;97828.66;;;23.36;100.00
20156;BME280;10238;49.556;10.956;2022-08-19T10:21:12;97825.38;;;23.34;100.00
20156;BME280;10238;49.556;10.956;2022-08-19T10:24:05;97821.59;;;23.35;100.00
20156;BME280;10238;49.556;10.956;2022-08-19T10:26:58;97828.09;;;23.34;100.00
20156;BME280;10238;49.556;10.956;2022-08-19T10:29:47;97832.69;;;23.33;100.00
20156;BME280;10238;49.556;10.956;2022-08-19T10:32:38;97834.81;;;23.31;100.00
20156;BME280;10238;49.556;10.956;2022-08-19T10:35:33;97837.78;;;23.29;100.00
20156;BME280;10238;49.556;10.956;2022-08-19T10:38:44;97832.34;;;23.29;100.00
20156;BME280;10238;49.556;10.956;2022-08-19T10:41:40;97829.63;;;23.29;100.00
20156;BME280;10238;49.556;10.956;2022-08-19T10:44:33;97836.47;;;23.32;100.00
20156;BME280;10238;49.556;10.956;2022-08-19T10:47:23;97827.03;;;23.35;100.00
20156;BME280;10238;49.556;10.956;2022-08-19T10:50:20;97829.78;;;23.40;100.00
20156;BME280;10238;49.556;10.956;2022-08-19T10:53:28;97839.59;;;23.41;100.00
20156;BME280;10238;49.556;10.956;2022-08-19T10:56:17;97835.56;;;23.43;100.00
20156;BME280;10238;49.556;10.956;2022-08-19T10:59:27;97835.81;;;23.42;100.00
20156;BME280;10238;49.556;10.956;2022-08-19T11:02:23;97827.91;;;23.40;100.00
20156;BME280;10238;49.556;10.956;2022-08-19T11:05:13;97826.56;;;23.43;100.00
20156;BME280;10238;49.556;10.956;2022-08-19T11:08:06;97828.25;;;23.44;100.00
20156;BME280;10238;49.556;10.956;2022-08-19T11:11:12;97830.97;;;23.44;100.00
20156;BME280;10238;49.556;10.956;2022-08-19T11:14:01;97831.50;;;23.46;100.00
20156;BME280;10238;49.556;10.956;2022-08-19T11:16:52;97830.78;;;23.50;100.00
20156;BME280;10238;49.556;10.956;2022-08-19T11:19:43;97828.94;;;23.56;100.00
20156;BME280;10238;49.556;10.956;2022-08-19T11:22:32;97833.06;;;23.58;100.00
20156;BME280;10238;49.556;10.956;2022-08-19T11:25:29;97833.63;;;23.60;100.00
20156;BME280;10238;49.556;10.956;2022-08-19T11:28:19;97828.19;;;23.60;100.00
20156;BME280;10238;49.556;10.956;2022-08-19T11:31:11;97832.81;;;23.60;100.00
20156;BME280;10238;49.556;10.956;2022-08-19T11:34:04;97825.72;;;23.59;100.00
20156;BME280;10238;49.556;10.956;2022-08-19T11:36:55;97832.47;;;23.56;100.00
20156;BME280;10238;49.556;10.956;2022-08-19T11:39:46;97824.84;;;23.53;100.00
20156;BME280;10238;49.556;10.956;2022-08-19T11:42:44;97835.94;;;23.52;100.00
20156;BME280;10238;49.556;10.956;2022-08-19T11:45:46;97828.06;;;23.50;100.00
20156;BME280;10238;49.556;10.956;2022-08-19T11:48:37;97822.31;;;23.47;100.00
20156;BME280;10238;49.556;10.956;2022-08-19T11:51:36;97826.09;;;23.46;100.00
20156;BME280;10238;49.556;10.956;2022-08-19T11:54:26;97817.38;;;23.44;100.00
20156;BME280;10238;49.556;10.956;2022-08-19T11:57:15;97810.81;;;23.40;100.00
20156;BME280;10238;49.556;10.956;2022-08-19T12:00:07;97814.28;;;23.35;100.00
20156;BME280;10238;49.556;10.956;2022-08-19T12:02:58;97817.25;;;23.34;100.00
20156;BME280;10238;49.556;10.956;2022-08-19T12:05:48;97809.50;;;23.25;100.00
20156;BME280;10238;49.556;10.956;2022-08-19T12:08:38;97806.69;;;23.20;100.00
20156;BME280;10238;49.556;10.956;2022-08-19T12:14:28;97824.03;;;23.03;100.00
20156;BME280;10238;49.556;10.956;2022-08-19T12:17:22;97829.88;;;22.95;100.00
20156;BME280;10238;49.556;10.956;2022-08-19T12:20:16;97833.22;;;22.85;100.00
20156;BME280;10238;49.556;10.956;2022-08-19T12:23:08;97832.47;;;22.73;100.00
20156;BME280;10238;49.556;10.956;2022-08-19T12:26:00;97833.47;;;22.67;100.00
20156;BME280;10238;49.556;10.956;2022-08-19T12:28:49;97827.88;;;22.57;100.00
20156;BME280;10238;49.556;10.956;2022-08-19T12:31:41;97828.44;;;22.48;100.00
20156;BME280;10238;49.556;10.956;2022-08-19T12:34:35;97836.97;;;22.40;100.00
20156;BME280;10238;49.556;10.956;2022-08-19T12:37:25;97830.06;;;22.32;100.00
20156;BME280;10238;49.556;10.956;2022-08-19T12:40:15;97833.38;;;22.23;100.00
20156;BME280;10238;49.556;10.956;2022-08-19T12:43:06;97834.56;;;22.15;100.00
20156;BME280;10238;49.556;10.956;2022-08-19T12:45:56;97823.06;;;22.08;100.00
20156;BME280;10238;49.556;10.956;2022-08-19T12:48:46;97833.56;;;22.05;100.00
20156;BME280;10238;49.556;10.956;2022-08-19T12:51:42;97828.63;;;22.02;100.00
20156;BME280;10238;49.556;10.956;2022-08-19T12:54:32;97829.91;;;21.99;100.00
20156;BME280;10238;49.556;10.956;2022-08-19T12:57:23;97828.28;;;21.98;100.00
20156;BME280;10238;49.556;10.956;2022-08-19T13:00:22;97835.34;;;21.99;100.00
20156;BME280;10238;49.556;10.956;2022-08-19T13:03:11;97838.28;;;21.98;100.00
20156;BME280;10238;49.556;10.956;2022-08-19T13:06:01;97836.63;;;21.97;100.00
20156;BME280;10238;49.556;10.956;2022-08-19T13:08:52;97835.81;;;21.96;100.00
20156;BME280;10238;49.556;10.956;2022-08-19T13:11:46;97840.75;;;21.99;100.00
20156;BME280;10238;49.556;10.956;2022-08-19T13:14:35;97849.94;;;21.98;100.00
20156;BME280;10238;49.556;10.956;2022-08-19T13:17:26;97849.09;;;21.98;100.00
20156;BME280;10238;49.556;10.956;2022-08-19T13:20:19;97856.06;;;21.94;100.00
20156;BME280;10238;49.556;10.956;2022-08-19T13:23:09;97856.31;;;21.92;100.00
20156;BME280;10238;49.556;10.956;2022-08-19T13:26:04;97847.63;;;21.90;100.00
20156;BME280;10238;49.556;10.956;2022-08-19T13:28:53;97853.03;;;21.90;100.00
20156;BME280;10238;49.556;10.956;2022-08-19T13:32:04;97857.25;;;21.86;100.00
20156;BME280;10238;49.556;10.956;2022-08-19T13:35:11;97852.91;;;21.85;100.00
20156;BME280;10238;49.556;10.956;2022-08-19T13:38:04;97860.19;;;21.85;100.00
20156;BME280;10238;49.556;10.956;2022-08-19T13:41:05;97859.38;;;21.84;100.00
20156;BME280;10238;49.556;10.956;2022-08-19T13:44:04;97868.06;;;21.86;100.00
20156;BME280;10238;49.556;10.956;2022-08-19T13:46:55;97872.69;;;21.86;100.00
20156;BME280;10238;49.556;10.956;2022-08-19T13:49:53;97869.75;;;21.87;100.00
20156;BME280;10238;49.556;10.956;2022-08-19T13:52:43;97877.25;;;21.85;100.00
20156;BME280;10238;49.556;10.956;2022-08-19T13:55:33;97870.22;;;21.84;100.00
20156;BME280;10238;49.556;10.956;2022-08-19T13:58:25;97873.16;;;21.83;100.00
20156;BME280;10238;49.556;10.956;2022-08-19T14:01:20;97875.28;;;21.81;100.00
20156;BME280;10238;49.556;10.956;2022-08-19T14:04:13;97872.56;;;21.81;100.00
20156;BME280;10238;49.556;10.956;2022-08-19T14:07:03;97864.09;;;21.77;100.00
20156;BME280;10238;49.556;10.956;2022-08-19T14:09:53;97867.84;;;21.76;100.00
20156;BME280;10238;49.556;10.956;2022-08-19T14:12:43;97865.38;;;21.75;100.00
20156;BME280;10238;49.556;10.956;2022-08-19T14:15:34;97870.44;;;21.71;100.00
20156;BME280;10238;49.556;10.956;2022-08-19T14:18:25;97869.84;;;21.69;100.00
20156;BME280;10238;49.556;10.956;2022-08-19T14:21:23;97875.72;;;21.66;100.00
20156;BME280;10238;49.556;10.956;2022-08-19T14:24:13;97885.38;;;21.62;100.00
20156;BME280;10238;49.556;10.956;2022-08-19T14:27:02;97881.75;;;21.57;100.00
20156;BME280;10238;49.556;10.956;2022-08-19T14:29:52;97888.31;;;21.49;100.00
20156;BME280;10238;49.556;10.956;2022-08-19T14:32:44;97882.53;;;21.46;100.00
20156;BME280;10238;49.556;10.956;2022-08-19T14:35:34;97881.13;;;21.43;100.00
20156;BME280;10238;49.556;10.956;2022-08-19T14:38:23;97878.91;;;21.40;100.00
20156;BME280;10238;49.556;10.956;2022-08-19T14:41:21;97875.59;;;21.38;100.00
20156;BME280;10238;49.556;10.956;2022-08-19T14:44:11;97885.47;;;21.33;100.00
20156;BME280;10238;49.556;10.956;2022-08-19T14:47:01;97875.38;;;21.28;100.00
20156;BME280;10238;49.556;10.956;2022-08-19T14:49:52;97879.38;;;21.25;100.00
20156;BME280;10238;49.556;10.956;2022-08-19T14:52:41;97874.19;;;21.24;100.00
20156;BME280;10238;49.556;10.956;2022-08-19T14:55:34;97874.06;;;21.19;100.00
20156;BME280;10238;49.556;10.956;2022-08-19T14:58:26;97882.06;;;21.14;100.00